EDW78 LSZH-FSIA
Flight info
| Callsign | EDW78 |
|---|---|
| Flight time | N/A |
| Altitude | 37000 |
| Route | DEGES Z2 XEBIX L607 ELMEM N606 GIRIS DCT NIVAS DCT PEVAL DCT AIOSA DCT LATAN DCT SALUN N705 MMA/N0494F390 N705 BOPIX N710 TAKRI P751 LXR M999 JDW G650 RASKA/N0487F400 G650 ULONI UG650 ASM/N0491F390 UA451 SB UR775 HARGA/N0488F400 UM651 MURAL/N0485F410 UG651 KUSUB UM651 ESTOK DCT IMSES DCT ETLOS T155 ROUTY |
| Aircraft | A359/H-SDE2E3GHIJ3J4J5LM1ORWXY/LB1D1 |
Departure
| Time | N/A |
|---|---|
| Airport | Zürich Airport (LSZH) |
Arrival
| Time | 2026-04-26 06:22 |
|---|---|
| Airport | Seychelles International Airport (FSIA) |
| Time | Latitude | Longitude | Altitude | Speed | Heading |
|---|---|---|---|---|---|
| 2026-04-26 04:11 | 8.57603 | 44.92951 | 39025 ft | 502 kts | 136° |
| 2026-04-26 04:12 | 8.55029 | 44.95332 | 39030 ft | 502 kts | 136° |
| 2026-04-26 04:12 | 8.49870 | 45.00097 | 39026 ft | 502 kts | 136° |
| 2026-04-26 04:13 | 8.44719 | 45.04851 | 39030 ft | 502 kts | 136° |
| 2026-04-26 04:13 | 8.39559 | 45.09613 | 39019 ft | 502 kts | 136° |
| 2026-04-26 04:14 | 8.34435 | 45.14342 | 39023 ft | 502 kts | 136° |
| 2026-04-26 04:14 | 8.29278 | 45.19099 | 39022 ft | 502 kts | 136° |
| 2026-04-26 04:15 | 8.24117 | 45.23858 | 39020 ft | 501 kts | 136° |
| 2026-04-26 04:15 | 8.18964 | 45.28608 | 39025 ft | 501 kts | 136° |
| 2026-04-26 04:16 | 8.13808 | 45.33358 | 39025 ft | 501 kts | 136° |
| 2026-04-26 04:16 | 8.08692 | 45.38071 | 39022 ft | 501 kts | 136° |
| 2026-04-26 04:17 | 8.03545 | 45.42810 | 39020 ft | 500 kts | 136° |
| 2026-04-26 04:17 | 7.98393 | 45.47552 | 39021 ft | 500 kts | 136° |
| 2026-04-26 04:18 | 7.93245 | 45.52290 | 39023 ft | 500 kts | 136° |
| 2026-04-26 04:18 | 7.88096 | 45.57025 | 39018 ft | 500 kts | 136° |
| 2026-04-26 04:19 | 7.82957 | 45.61750 | 39019 ft | 499 kts | 135° |
| 2026-04-26 04:19 | 7.77855 | 45.66439 | 39018 ft | 499 kts | 135° |
| 2026-04-26 04:20 | 7.72725 | 45.71153 | 39022 ft | 499 kts | 135° |
| 2026-04-26 04:20 | 7.67593 | 45.75867 | 39006 ft | 499 kts | 135° |
| 2026-04-26 04:21 | 7.62464 | 45.80589 | 39014 ft | 498 kts | 135° |
| 2026-04-26 04:21 | 7.57346 | 45.85306 | 39017 ft | 498 kts | 135° |
| 2026-04-26 04:22 | 7.52232 | 45.90018 | 39017 ft | 498 kts | 135° |
| 2026-04-26 04:22 | 7.47147 | 45.94700 | 39017 ft | 498 kts | 135° |
| 2026-04-26 04:23 | 7.42025 | 45.99414 | 39013 ft | 498 kts | 135° |
| 2026-04-26 04:23 | 7.36911 | 46.04119 | 39011 ft | 497 kts | 135° |
| 2026-04-26 04:24 | 7.31801 | 46.08819 | 39012 ft | 497 kts | 135° |
| 2026-04-26 04:24 | 7.26695 | 46.13513 | 39011 ft | 497 kts | 135° |
| 2026-04-26 04:25 | 7.21615 | 46.18183 | 39007 ft | 497 kts | 135° |
| 2026-04-26 04:25 | 7.16516 | 46.22868 | 39011 ft | 497 kts | 135° |
| 2026-04-26 04:26 | 7.11400 | 46.27567 | 39010 ft | 496 kts | 135° |
| 2026-04-26 04:26 | 7.06321 | 46.32231 | 39006 ft | 496 kts | 135° |
| 2026-04-26 04:27 | 7.01218 | 46.36915 | 39003 ft | 496 kts | 135° |
| 2026-04-26 04:27 | 6.96116 | 46.41598 | 39003 ft | 496 kts | 135° |
| 2026-04-26 04:28 | 6.91016 | 46.46277 | 39004 ft | 496 kts | 135° |
| 2026-04-26 04:28 | 6.85942 | 46.50931 | 39004 ft | 495 kts | 135° |
| 2026-04-26 04:29 | 6.80847 | 46.55602 | 38995 ft | 495 kts | 135° |
| 2026-04-26 04:29 | 6.75760 | 46.60264 | 38997 ft | 495 kts | 135° |
| 2026-04-26 04:30 | 6.70667 | 46.64932 | 39000 ft | 495 kts | 135° |
| 2026-04-26 04:30 | 6.65504 | 46.69526 | 38999 ft | 496 kts | 139° |
| 2026-04-26 04:31 | 6.60056 | 46.73802 | 38995 ft | 496 kts | 140° |
| 2026-04-26 04:31 | 6.54615 | 46.77998 | 38995 ft | 496 kts | 140° |
| 2026-04-26 04:32 | 6.49171 | 46.82273 | 38990 ft | 495 kts | 140° |
| 2026-04-26 04:32 | 6.43761 | 46.86571 | 38985 ft | 495 kts | 139° |
| 2026-04-26 04:33 | 6.38350 | 46.90880 | 38995 ft | 495 kts | 140° |
| 2026-04-26 04:33 | 6.32982 | 46.95151 | 38978 ft | 495 kts | 140° |
| 2026-04-26 04:34 | 6.27573 | 46.99451 | 38981 ft | 496 kts | 139° |
| 2026-04-26 04:34 | 6.22131 | 47.03776 | 38985 ft | 500 kts | 139° |
| 2026-04-26 04:35 | 6.16661 | 47.08121 | 38982 ft | 500 kts | 139° |
| 2026-04-26 04:35 | 6.11231 | 47.12433 | 38979 ft | 500 kts | 139° |
| 2026-04-26 04:36 | 6.05777 | 47.16763 | 38977 ft | 499 kts | 139° |
| 2026-04-26 04:36 | 6.00326 | 47.21090 | 38978 ft | 499 kts | 139° |
| 2026-04-26 04:37 | 5.94872 | 47.25417 | 38976 ft | 499 kts | 139° |
| 2026-04-26 04:37 | 5.89427 | 47.29737 | 38973 ft | 499 kts | 139° |
| 2026-04-26 04:38 | 5.84009 | 47.34035 | 38973 ft | 499 kts | 139° |
| 2026-04-26 04:38 | 5.78552 | 47.38362 | 38973 ft | 499 kts | 139° |
| 2026-04-26 04:39 | 5.73106 | 47.42679 | 38971 ft | 499 kts | 139° |
| 2026-04-26 04:39 | 5.67645 | 47.47007 | 38974 ft | 499 kts | 139° |
| 2026-04-26 04:40 | 5.62236 | 47.51310 | 38972 ft | 499 kts | 139° |
| 2026-04-26 04:40 | 5.56823 | 47.55669 | 38968 ft | 496 kts | 139° |
| 2026-04-26 04:41 | 5.51480 | 47.59978 | 38974 ft | 495 kts | 139° |
| 2026-04-26 04:41 | 5.46105 | 47.64303 | 38966 ft | 495 kts | 139° |
| 2026-04-26 04:42 | 5.40721 | 47.68630 | 38967 ft | 495 kts | 139° |
| 2026-04-26 04:42 | 5.35343 | 47.72951 | 38966 ft | 495 kts | 139° |
| 2026-04-26 04:43 | 5.29969 | 47.77267 | 38968 ft | 494 kts | 139° |
| 2026-04-26 04:43 | 5.24624 | 47.81559 | 38969 ft | 494 kts | 139° |
| 2026-04-26 04:44 | 5.19247 | 47.85876 | 38971 ft | 494 kts | 139° |
| 2026-04-26 04:44 | 5.13870 | 47.90192 | 38972 ft | 494 kts | 139° |
| 2026-04-26 04:45 | 5.08496 | 47.94504 | 38970 ft | 494 kts | 139° |
| 2026-04-26 04:45 | 5.03131 | 47.98808 | 38967 ft | 493 kts | 139° |
| 2026-04-26 04:46 | 4.97796 | 48.03088 | 38967 ft | 493 kts | 139° |
| 2026-04-26 04:46 | 4.92434 | 48.07388 | 38961 ft | 493 kts | 139° |
| 2026-04-26 04:47 | 4.87066 | 48.11692 | 38959 ft | 493 kts | 139° |
| 2026-04-26 04:47 | 4.81703 | 48.15992 | 38953 ft | 493 kts | 139° |
| 2026-04-26 04:48 | 4.73705 | 48.22401 | 38950 ft | 492 kts | 139° |
| 2026-04-26 04:48 | 4.68365 | 48.26680 | 38947 ft | 491 kts | 139° |
| 2026-04-26 04:49 | 4.63023 | 48.30959 | 38943 ft | 491 kts | 139° |
| 2026-04-26 04:49 | 4.57685 | 48.35234 | 38944 ft | 491 kts | 139° |
| 2026-04-26 04:50 | 4.52346 | 48.39509 | 38945 ft | 490 kts | 139° |
| 2026-04-26 04:50 | 4.47013 | 48.43778 | 38944 ft | 490 kts | 139° |
| 2026-04-26 04:51 | 4.41685 | 48.48043 | 38940 ft | 489 kts | 140° |
| 2026-04-26 04:51 | 4.36366 | 48.52300 | 38942 ft | 489 kts | 140° |
| 2026-04-26 04:52 | 4.31081 | 48.56529 | 38941 ft | 489 kts | 140° |
| 2026-04-26 04:52 | 4.25758 | 48.60787 | 38940 ft | 487 kts | 140° |
| 2026-04-26 04:53 | 4.20470 | 48.65016 | 38944 ft | 486 kts | 140° |
| 2026-04-26 04:53 | 4.15174 | 48.69245 | 38943 ft | 486 kts | 140° |
| 2026-04-26 04:54 | 4.09876 | 48.73456 | 38944 ft | 486 kts | 140° |
| 2026-04-26 04:54 | 4.05466 | 48.76962 | 38941 ft | 486 kts | 140° |
| 2026-04-26 04:55 | 4.00160 | 48.81181 | 38948 ft | 486 kts | 140° |
| 2026-04-26 04:55 | 3.94857 | 48.85399 | 38945 ft | 487 kts | 140° |
| 2026-04-26 04:56 | 3.89544 | 48.89625 | 38944 ft | 487 kts | 140° |
| 2026-04-26 04:56 | 3.84278 | 48.93811 | 38944 ft | 487 kts | 140° |
| 2026-04-26 04:57 | 3.78973 | 48.98029 | 38946 ft | 487 kts | 140° |
| 2026-04-26 04:57 | 3.73665 | 49.02249 | 38950 ft | 487 kts | 140° |
| 2026-04-26 04:58 | 3.68350 | 49.06472 | 38945 ft | 487 kts | 140° |
| 2026-04-26 04:58 | 3.63038 | 49.10694 | 38944 ft | 487 kts | 140° |
| 2026-04-26 04:59 | 3.57761 | 49.14886 | 38947 ft | 487 kts | 140° |
| 2026-04-26 04:59 | 3.52452 | 49.19103 | 38944 ft | 487 kts | 140° |
| 2026-04-26 05:00 | 3.47147 | 49.23317 | 38946 ft | 486 kts | 140° |
| 2026-04-26 05:00 | 3.41850 | 49.27524 | 38945 ft | 486 kts | 140° |
| 2026-04-26 05:01 | 3.36551 | 49.31732 | 38944 ft | 486 kts | 140° |
| 2026-04-26 05:01 | 3.31276 | 49.35920 | 38943 ft | 487 kts | 140° |
| 2026-04-26 05:02 | 3.25966 | 49.40135 | 38942 ft | 487 kts | 140° |
| 2026-04-26 05:02 | 3.20642 | 49.44361 | 38943 ft | 487 kts | 140° |
| 2026-04-26 05:03 | 3.15330 | 49.48576 | 38944 ft | 487 kts | 140° |
| 2026-04-26 05:03 | 3.10041 | 49.52773 | 38948 ft | 488 kts | 140° |
| 2026-04-26 05:04 | 3.04719 | 49.56998 | 38941 ft | 489 kts | 141° |
| 2026-04-26 05:04 | 2.99380 | 49.61233 | 38943 ft | 490 kts | 141° |
| 2026-04-26 05:05 | 2.94042 | 49.65466 | 38941 ft | 490 kts | 141° |
| 2026-04-26 05:05 | 2.88694 | 49.69706 | 38944 ft | 492 kts | 140° |
| 2026-04-26 05:06 | 2.83334 | 49.73957 | 38940 ft | 496 kts | 140° |
| 2026-04-26 05:06 | 2.77910 | 49.78258 | 38937 ft | 498 kts | 141° |
| 2026-04-26 05:07 | 2.72474 | 49.82567 | 38940 ft | 498 kts | 141° |
| 2026-04-26 05:07 | 2.67071 | 49.86931 | 38941 ft | 498 kts | 139° |
| 2026-04-26 05:08 | 2.61771 | 49.91408 | 38939 ft | 499 kts | 138° |
| 2026-04-26 05:08 | 2.56522 | 49.95850 | 38939 ft | 496 kts | 139° |
| 2026-04-26 05:09 | 2.51241 | 50.00290 | 38942 ft | 496 kts | 139° |
| 2026-04-26 05:09 | 2.45943 | 50.04727 | 38942 ft | 497 kts | 139° |
| 2026-04-26 05:10 | 2.40633 | 50.09170 | 38942 ft | 497 kts | 139° |
| 2026-04-26 05:10 | 2.35360 | 50.13583 | 38940 ft | 496 kts | 139° |
| 2026-04-26 05:11 | 2.30073 | 50.18008 | 38942 ft | 495 kts | 139° |
| 2026-04-26 05:11 | 2.24795 | 50.22425 | 38942 ft | 495 kts | 139° |
| 2026-04-26 05:12 | 2.19502 | 50.26854 | 38940 ft | 495 kts | 139° |
| 2026-04-26 05:12 | 2.14210 | 50.31282 | 38939 ft | 496 kts | 139° |
| 2026-04-26 05:13 | 2.08919 | 50.35709 | 38939 ft | 496 kts | 139° |
| 2026-04-26 05:13 | 2.03623 | 50.40140 | 38936 ft | 496 kts | 139° |
| 2026-04-26 05:14 | 1.98330 | 50.44568 | 38942 ft | 496 kts | 140° |
| 2026-04-26 05:14 | 1.93065 | 50.48972 | 38942 ft | 497 kts | 140° |
| 2026-04-26 05:15 | 1.87761 | 50.53408 | 38943 ft | 497 kts | 140° |
| 2026-04-26 05:15 | 1.82455 | 50.57845 | 38940 ft | 497 kts | 140° |
| 2026-04-26 05:16 | 1.77153 | 50.62279 | 38940 ft | 497 kts | 140° |
| 2026-04-26 05:16 | 1.71849 | 50.66714 | 38944 ft | 496 kts | 140° |
| 2026-04-26 05:17 | 1.66563 | 50.71134 | 38939 ft | 497 kts | 140° |
| 2026-04-26 05:17 | 1.61255 | 50.75571 | 38939 ft | 497 kts | 140° |
| 2026-04-26 05:18 | 1.55973 | 50.79987 | 38940 ft | 497 kts | 140° |
| 2026-04-26 05:18 | 1.50655 | 50.84433 | 38942 ft | 497 kts | 140° |
| 2026-04-26 05:19 | 1.45345 | 50.88872 | 38945 ft | 499 kts | 140° |
| 2026-04-26 05:19 | 1.39982 | 50.93355 | 38945 ft | 504 kts | 140° |
| 2026-04-26 05:20 | 1.34585 | 50.97865 | 38939 ft | 505 kts | 140° |
| 2026-04-26 05:20 | 1.29216 | 51.02352 | 38941 ft | 505 kts | 140° |
| 2026-04-26 05:21 | 1.23824 | 51.06857 | 38944 ft | 505 kts | 140° |
| 2026-04-26 05:21 | 1.18425 | 51.11369 | 38946 ft | 505 kts | 140° |
| 2026-04-26 05:22 | 1.13014 | 51.15891 | 38940 ft | 508 kts | 140° |
| 2026-04-26 05:22 | 1.07585 | 51.20427 | 38942 ft | 508 kts | 140° |
| 2026-04-26 05:23 | 1.02187 | 51.24938 | 38943 ft | 508 kts | 140° |
| 2026-04-26 05:23 | 0.96732 | 51.29440 | 38944 ft | 508 kts | 140° |
| 2026-04-26 05:24 | 0.91263 | 51.33923 | 38944 ft | 508 kts | 140° |
| 2026-04-26 05:24 | 0.85796 | 51.38412 | 38944 ft | 508 kts | 140° |
| 2026-04-26 05:25 | 0.80340 | 51.42902 | 38949 ft | 507 kts | 140° |
| 2026-04-26 05:25 | 0.74929 | 51.47357 | 38949 ft | 507 kts | 140° |
| 2026-04-26 05:26 | 0.69486 | 51.51838 | 38950 ft | 507 kts | 140° |
| 2026-04-26 05:26 | 0.64043 | 51.56318 | 38949 ft | 507 kts | 140° |
| 2026-04-26 05:27 | 0.58586 | 51.60810 | 38952 ft | 508 kts | 139° |
| 2026-04-26 05:27 | 0.53106 | 51.65321 | 38947 ft | 511 kts | 139° |
| 2026-04-26 05:28 | 0.47615 | 51.69840 | 38951 ft | 512 kts | 139° |
| 2026-04-26 05:28 | 0.42155 | 51.74334 | 38952 ft | 512 kts | 139° |
| 2026-04-26 05:29 | 0.36657 | 51.78859 | 38953 ft | 512 kts | 139° |
| 2026-04-26 05:29 | 0.31160 | 51.83383 | 38953 ft | 511 kts | 139° |
| 2026-04-26 05:30 | 0.25666 | 51.87905 | 38955 ft | 510 kts | 139° |
| 2026-04-26 05:30 | 0.20182 | 51.92418 | 38955 ft | 510 kts | 139° |
| 2026-04-26 05:31 | 0.14734 | 51.96901 | 38953 ft | 510 kts | 139° |
| 2026-04-26 05:31 | 0.09249 | 52.01415 | 38951 ft | 510 kts | 139° |
| 2026-04-26 05:32 | 0.03773 | 52.05923 | 38950 ft | 510 kts | 140° |
| 2026-04-26 05:32 | -0.01710 | 52.10435 | 38956 ft | 510 kts | 139° |
| 2026-04-26 05:33 | -0.07173 | 52.14930 | 38955 ft | 508 kts | 139° |
| 2026-04-26 05:33 | -0.12608 | 52.19403 | 38955 ft | 508 kts | 139° |
| 2026-04-26 05:34 | -0.18066 | 52.23896 | 38955 ft | 508 kts | 139° |
| 2026-04-26 05:34 | -0.23527 | 52.28390 | 38955 ft | 508 kts | 139° |
| 2026-04-26 05:35 | -0.28990 | 52.32887 | 38955 ft | 510 kts | 140° |
| 2026-04-26 05:35 | -0.34461 | 52.37388 | 38955 ft | 508 kts | 139° |
| 2026-04-26 05:36 | -0.39918 | 52.41880 | 38955 ft | 507 kts | 139° |
| 2026-04-26 05:36 | -0.45331 | 52.46335 | 38954 ft | 507 kts | 139° |
| 2026-04-26 05:37 | -0.50780 | 52.50819 | 38955 ft | 507 kts | 139° |
| 2026-04-26 05:37 | -0.56229 | 52.55305 | 38955 ft | 508 kts | 139° |
| 2026-04-26 05:38 | -0.61695 | 52.59804 | 38956 ft | 509 kts | 139° |
| 2026-04-26 05:38 | -0.67151 | 52.64295 | 38952 ft | 507 kts | 139° |
| 2026-04-26 05:39 | -0.72561 | 52.68748 | 38953 ft | 506 kts | 139° |
| 2026-04-26 05:39 | -0.78004 | 52.73228 | 38951 ft | 506 kts | 139° |
| 2026-04-26 05:40 | -0.83447 | 52.77710 | 38950 ft | 507 kts | 139° |
| 2026-04-26 05:40 | -0.88886 | 52.82188 | 38950 ft | 510 kts | 139° |
| 2026-04-26 05:41 | -0.94370 | 52.86702 | 38950 ft | 510 kts | 139° |
| 2026-04-26 05:41 | -0.99850 | 52.91213 | 38946 ft | 510 kts | 139° |
| 2026-04-26 05:42 | -1.05296 | 52.95697 | 38950 ft | 510 kts | 139° |
| 2026-04-26 05:42 | -1.09888 | 52.99477 | 38947 ft | 510 kts | 139° |
| 2026-04-26 05:43 | -1.15329 | 53.03958 | 38946 ft | 511 kts | 139° |
| 2026-04-26 05:43 | -1.20816 | 53.08476 | 38947 ft | 511 kts | 139° |
| 2026-04-26 05:44 | -1.26314 | 53.13004 | 38944 ft | 512 kts | 139° |
| 2026-04-26 05:44 | -1.31814 | 53.17534 | 38944 ft | 512 kts | 139° |
| 2026-04-26 05:45 | -1.37309 | 53.22059 | 38947 ft | 512 kts | 139° |
| 2026-04-26 05:45 | -1.42770 | 53.26557 | 38947 ft | 512 kts | 139° |
| 2026-04-26 05:46 | -1.48274 | 53.31090 | 38945 ft | 513 kts | 139° |
| 2026-04-26 05:46 | -1.53776 | 53.35622 | 38938 ft | 513 kts | 139° |
| 2026-04-26 05:47 | -1.59284 | 53.40160 | 38946 ft | 513 kts | 139° |
| 2026-04-26 05:47 | -1.64808 | 53.44711 | 38944 ft | 513 kts | 139° |
| 2026-04-26 05:48 | -1.70274 | 53.49214 | 38943 ft | 513 kts | 139° |
| 2026-04-26 05:48 | -1.75774 | 53.53746 | 38944 ft | 513 kts | 139° |
| 2026-04-26 05:49 | -1.84042 | 53.60559 | 38944 ft | 512 kts | 139° |
| 2026-04-26 05:50 | -1.89550 | 53.65099 | 38945 ft | 512 kts | 139° |
| 2026-04-26 05:50 | -1.95013 | 53.69602 | 38944 ft | 512 kts | 139° |
| 2026-04-26 05:51 | -2.00511 | 53.74134 | 38948 ft | 512 kts | 139° |
| 2026-04-26 05:51 | -2.06003 | 53.78661 | 38944 ft | 511 kts | 139° |
| 2026-04-26 05:52 | -2.11489 | 53.83184 | 38947 ft | 510 kts | 139° |
| 2026-04-26 05:52 | -2.16973 | 53.87705 | 38945 ft | 511 kts | 139° |
| 2026-04-26 05:53 | -2.22460 | 53.92231 | 38944 ft | 511 kts | 139° |
| 2026-04-26 05:53 | -2.27945 | 53.96754 | 38948 ft | 511 kts | 139° |
| 2026-04-26 05:54 | -2.33435 | 54.01283 | 38946 ft | 511 kts | 139° |
| 2026-04-26 05:54 | -2.38916 | 54.05803 | 38947 ft | 510 kts | 139° |
| 2026-04-26 05:55 | -2.44366 | 54.10299 | 38946 ft | 510 kts | 139° |
| 2026-04-26 05:55 | -2.49853 | 54.14827 | 38947 ft | 510 kts | 139° |
| 2026-04-26 05:56 | -2.55295 | 54.19317 | 38946 ft | 510 kts | 139° |
| 2026-04-26 05:56 | -2.60851 | 54.23741 | 38946 ft | 510 kts | 141° |
| 2026-04-26 05:57 | -2.66475 | 54.28082 | 38944 ft | 510 kts | 141° |
| 2026-04-26 05:57 | -2.72089 | 54.32432 | 38947 ft | 510 kts | 141° |
| 2026-04-26 05:58 | -2.77694 | 54.36803 | 38944 ft | 510 kts | 141° |
| 2026-04-26 05:58 | -2.83288 | 54.41178 | 38945 ft | 510 kts | 141° |
| 2026-04-26 05:59 | -2.88882 | 54.45555 | 38944 ft | 510 kts | 141° |
| 2026-04-26 05:59 | -2.94439 | 54.49901 | 38940 ft | 510 kts | 141° |
| 2026-04-26 06:00 | -3.00040 | 54.54283 | 38948 ft | 511 kts | 141° |
| 2026-04-26 06:00 | -3.05639 | 54.58663 | 38946 ft | 511 kts | 141° |
| 2026-04-26 06:01 | -3.11245 | 54.63048 | 38945 ft | 511 kts | 141° |
| 2026-04-26 06:01 | -3.16825 | 54.67415 | 38943 ft | 507 kts | 141° |
| 2026-04-26 06:01 | -3.19594 | 54.69582 | 38733 ft | 503 kts | 142° |
| 2026-04-26 06:02 | -3.22312 | 54.71709 | 38235 ft | 499 kts | 142° |
| 2026-04-26 06:02 | -3.25052 | 54.73854 | 37492 ft | 500 kts | 142° |
| 2026-04-26 06:02 | -3.27800 | 54.76005 | 36803 ft | 500 kts | 142° |
| 2026-04-26 06:02 | -3.30546 | 54.78154 | 36136 ft | 500 kts | 142° |
| 2026-04-26 06:03 | -3.33292 | 54.80304 | 35454 ft | 501 kts | 142° |
| 2026-04-26 06:03 | -3.36039 | 54.82455 | 34761 ft | 502 kts | 142° |
| 2026-04-26 06:03 | -3.38790 | 54.84609 | 33981 ft | 504 kts | 142° |
| 2026-04-26 06:03 | -3.41557 | 54.86776 | 33097 ft | 506 kts | 142° |
| 2026-04-26 06:04 | -3.44336 | 54.88952 | 32234 ft | 507 kts | 142° |
| 2026-04-26 06:04 | -3.47121 | 54.91133 | 31382 ft | 508 kts | 142° |
| 2026-04-26 06:04 | -3.49877 | 54.93290 | 30515 ft | 510 kts | 142° |
| 2026-04-26 06:04 | -3.52715 | 54.95513 | 29508 ft | 513 kts | 142° |
| 2026-04-26 06:05 | -3.55516 | 54.97706 | 28750 ft | 509 kts | 142° |
| 2026-04-26 06:05 | -3.58255 | 54.99851 | 28064 ft | 504 kts | 142° |
| 2026-04-26 06:05 | -3.61004 | 55.02005 | 27385 ft | 499 kts | 142° |
| 2026-04-26 06:05 | -3.63723 | 55.04136 | 26744 ft | 494 kts | 142° |
| 2026-04-26 06:06 | -3.66419 | 55.06247 | 26090 ft | 489 kts | 142° |
| 2026-04-26 06:06 | -3.69083 | 55.08335 | 25443 ft | 485 kts | 142° |
| 2026-04-26 06:06 | -3.71730 | 55.10410 | 24796 ft | 480 kts | 141° |
| 2026-04-26 06:06 | -3.74343 | 55.12457 | 24085 ft | 469 kts | 141° |
| 2026-04-26 06:07 | -3.76891 | 55.14455 | 22742 ft | 462 kts | 141° |
| 2026-04-26 06:07 | -3.79413 | 55.16431 | 21169 ft | 459 kts | 141° |
| 2026-04-26 06:07 | -3.81911 | 55.18389 | 19814 ft | 452 kts | 141° |
| 2026-04-26 06:07 | -3.84334 | 55.20287 | 18551 ft | 445 kts | 141° |
| 2026-04-26 06:08 | -3.86749 | 55.22181 | 17205 ft | 437 kts | 141° |
| 2026-04-26 06:08 | -3.89117 | 55.24039 | 15864 ft | 428 kts | 141° |
| 2026-04-26 06:08 | -3.91445 | 55.25865 | 14549 ft | 422 kts | 141° |
| 2026-04-26 06:08 | -3.93736 | 55.27663 | 13394 ft | 413 kts | 141° |
| 2026-04-26 06:09 | -3.95933 | 55.29387 | 12800 ft | 388 kts | 141° |
| 2026-04-26 06:09 | -3.97986 | 55.30996 | 12318 ft | 364 kts | 141° |
| 2026-04-26 06:09 | -3.99813 | 55.32429 | 11891 ft | 343 kts | 141° |
| 2026-04-26 06:09 | -4.01635 | 55.33858 | 11482 ft | 323 kts | 141° |
| 2026-04-26 06:10 | -4.03366 | 55.35217 | 10916 ft | 312 kts | 141° |
| 2026-04-26 06:10 | -4.05035 | 55.36528 | 10593 ft | 295 kts | 141° |
| 2026-04-26 06:10 | -4.06616 | 55.37769 | 10249 ft | 291 kts | 141° |
| 2026-04-26 06:10 | -4.08199 | 55.39013 | 9946 ft | 287 kts | 141° |
| 2026-04-26 06:11 | -4.09787 | 55.40260 | 9623 ft | 295 kts | 141° |
| 2026-04-26 06:11 | -4.11413 | 55.41538 | 9271 ft | 297 kts | 142° |
| 2026-04-26 06:11 | -4.13034 | 55.42811 | 8930 ft | 295 kts | 142° |
| 2026-04-26 06:11 | -4.14645 | 55.44072 | 8596 ft | 293 kts | 142° |
| 2026-04-26 06:12 | -4.16349 | 55.45181 | 8205 ft | 291 kts | 152° |
| 2026-04-26 06:12 | -4.18207 | 55.45946 | 7829 ft | 288 kts | 164° |
| 2026-04-26 06:12 | -4.20168 | 55.46286 | 7487 ft | 284 kts | 177° |
| 2026-04-26 06:12 | -4.22136 | 55.46346 | 7153 ft | 282 kts | 180° |
| 2026-04-26 06:13 | -4.24096 | 55.46351 | 6827 ft | 281 kts | 180° |
| 2026-04-26 06:13 | -4.26045 | 55.46351 | 6503 ft | 278 kts | 181° |
| 2026-04-26 06:13 | -4.27966 | 55.46350 | 6167 ft | 275 kts | 181° |
| 2026-04-26 06:13 | -4.29855 | 55.46351 | 5845 ft | 274 kts | 181° |
| 2026-04-26 06:14 | -4.31754 | 55.46351 | 5516 ft | 272 kts | 181° |
| 2026-04-26 06:14 | -4.33640 | 55.46351 | 5203 ft | 271 kts | 181° |
| 2026-04-26 06:14 | -4.35525 | 55.46352 | 4900 ft | 269 kts | 181° |
| 2026-04-26 06:14 | -4.37393 | 55.46353 | 4591 ft | 268 kts | 181° |
| 2026-04-26 06:15 | -4.39256 | 55.46354 | 4269 ft | 266 kts | 181° |
| 2026-04-26 06:15 | -4.41110 | 55.46354 | 3952 ft | 266 kts | 181° |
| 2026-04-26 06:15 | -4.42951 | 55.46355 | 3648 ft | 264 kts | 181° |
| 2026-04-26 06:15 | -4.44757 | 55.46356 | 3499 ft | 253 kts | 181° |
| 2026-04-26 06:16 | -4.46464 | 55.46357 | 3407 ft | 239 kts | 181° |
| 2026-04-26 06:16 | -4.48067 | 55.46359 | 3304 ft | 226 kts | 181° |
| 2026-04-26 06:16 | -4.49601 | 55.46360 | 3203 ft | 215 kts | 181° |
| 2026-04-26 06:16 | -4.51051 | 55.46361 | 3129 ft | 201 kts | 181° |
| 2026-04-26 06:17 | -4.52401 | 55.46362 | 3034 ft | 187 kts | 181° |
| 2026-04-26 06:17 | -4.53657 | 55.46363 | 2939 ft | 175 kts | 181° |
| 2026-04-26 06:17 | -4.54833 | 55.46364 | 2832 ft | 163 kts | 181° |
| 2026-04-26 06:17 | -4.55924 | 55.46365 | 2685 ft | 151 kts | 181° |
| 2026-04-26 06:18 | -4.56941 | 55.46365 | 2484 ft | 142 kts | 181° |
| 2026-04-26 06:18 | -4.57902 | 55.46367 | 2301 ft | 136 kts | 181° |
| 2026-04-26 06:18 | -4.58862 | 55.46371 | 2079 ft | 139 kts | 181° |
| 2026-04-26 06:18 | -4.59824 | 55.46372 | 1892 ft | 137 kts | 181° |
| 2026-04-26 06:19 | -4.60776 | 55.46372 | 1757 ft | 138 kts | 181° |
| 2026-04-26 06:19 | -4.61726 | 55.46367 | 1614 ft | 137 kts | 181° |
| 2026-04-26 06:19 | -4.62670 | 55.46458 | 1386 ft | 138 kts | 168° |
| 2026-04-26 06:19 | -4.63549 | 55.46854 | 1211 ft | 141 kts | 147° |
| 2026-04-26 06:20 | -4.64254 | 55.47535 | 1003 ft | 141 kts | 127° |
| 2026-04-26 06:20 | -4.64798 | 55.48351 | 801 ft | 140 kts | 125° |
| 2026-04-26 06:20 | -4.65340 | 55.49155 | 621 ft | 138 kts | 126° |
| 2026-04-26 06:20 | -4.65890 | 55.49940 | 406 ft | 137 kts | 124° |
| 2026-04-26 06:21 | -4.66432 | 55.50725 | 176 ft | 135 kts | 123° |
| 2026-04-26 06:21 | -4.66951 | 55.51475 | 32 ft | 131 kts | 124° |
| 2026-04-26 06:21 | -4.67415 | 55.52146 | 29 ft | 101 kts | 124° |
| 2026-04-26 06:21 | -4.67761 | 55.52650 | 26 ft | 75 kts | 124° |
| 2026-04-26 06:22 | -4.67980 | 55.52969 | 28 ft | 36 kts | 124° |
| 2026-04-26 06:22 | -4.68102 | 55.53135 | 29 ft | 22 kts | 143° |
| 2026-04-26 06:22 | -4.68242 | 55.53177 | 27 ft | 17 kts | 153° |
| 2026-04-26 06:22 | -4.68238 | 55.53251 | 27 ft | 12 kts | 41° |
| 2026-04-26 06:23 | -4.68174 | 55.53246 | 28 ft | 10 kts | 317° |
| 2026-04-26 06:23 | -4.68113 | 55.53163 | 28 ft | 19 kts | 305° |
| 2026-04-26 06:23 | -4.68023 | 55.53032 | 29 ft | 27 kts | 304° |
| 2026-04-26 06:23 | -4.67903 | 55.52854 | 27 ft | 34 kts | 306° |
| 2026-04-26 06:24 | -4.67761 | 55.52650 | 26 ft | 36 kts | 304° |
| 2026-04-26 06:24 | -4.67615 | 55.52437 | 28 ft | 37 kts | 304° |
| 2026-04-26 06:24 | -4.67465 | 55.52220 | 29 ft | 38 kts | 305° |
| 2026-04-26 06:24 | -4.67325 | 55.52017 | 29 ft | 35 kts | 304° |
| 2026-04-26 06:25 | -4.67185 | 55.51814 | 28 ft | 36 kts | 304° |
| 2026-04-26 06:25 | -4.67052 | 55.51621 | 28 ft | 31 kts | 304° |
| 2026-04-26 06:25 | -4.66949 | 55.51470 | 28 ft | 21 kts | 305° |
| 2026-04-26 06:25 | -4.66900 | 55.51385 | 28 ft | 12 kts | 272° |
| 2026-04-26 06:26 | -4.66960 | 55.51325 | 27 ft | 14 kts | 216° |
| 2026-04-26 06:26 | -4.67031 | 55.51291 | 27 ft | 7 kts | 168° |
| 2026-04-26 06:26 | -4.67059 | 55.51301 | 27 ft | 0 kts | 169° |
| 2026-04-26 06:26 | -4.67060 | 55.51302 | 27 ft | 2 kts | 169° |
| 2026-04-26 06:27 | -4.67099 | 55.51288 | 27 ft | 9 kts | 205° |
| 2026-04-26 06:27 | -4.67114 | 55.51280 | 27 ft | 0 kts | 213° |